Latest Weather Observations for Hay Point

IDQ60801

Issued at 3:35 pm EST Friday 19 September 2014 (issued every 30 minutes, with the page automatically refreshed every 10 minutes)

About weather observations | Map of weather stations | Latest weather observations for QLD | Other Formats
Station Details ID: 033317 Name: HAY POINT Lat: -21.29 Lon: 149.30 Height: 7.0 m
Data from the previous 72 hours. | See also: Recent months for locations in Queensland
Date/Time
EST
Temp
°C
App
Temp
°C
Dew
Point
Rel
Hum
%
Delta-T
°C
Wind Press
QNH
hPa
Press
MSL
hPa
Rain
since 9 am
mm
Dir
 
Spd
km/h
Gust
km/h
Spd
kts
Gust
kts
19/03:30pm - - - - - E 17 22 9 12 - - -
19/03:00pm - - - - - E 19 24 10 13 - - -
19/02:30pm - - - - - E 19 24 10 13 - - -
19/02:00pm - - - - - ESE 17 19 9 10 - - -
19/01:30pm - - - - - ESE 13 17 7 9 - - -
19/01:00pm - - - - - ESE 13 15 7 8 - - -
19/12:30pm - - - - - SE 11 15 6 8 - - -
19/12:00pm - - - - - SE 13 15 7 8 - - -
19/11:30am - - - - - SSE 13 17 7 9 - - -
19/11:00am - - - - - SE 13 15 7 8 - - -
19/10:30am - - - - - SE 11 15 6 8 - - -
19/10:00am - - - - - SSE 15 20 8 11 - - -
19/09:30am - - - - - S 15 19 8 10 - - -
19/09:00am - - - - - S 15 17 8 9 - - -
19/08:30am - - - - - S 15 19 8 10 - - -
19/08:00am - - - - - SSW 15 19 8 10 - - -
19/07:30am - - - - - SW 11 15 6 8 - - -
19/07:00am - - - - - SW 13 15 7 8 - - -
19/06:30am - - - - - SW 13 15 7 8 - - -
19/06:00am - - - - - SW 15 17 8 9 - - -
19/05:30am - - - - - SW 13 15 7 8 - - -
19/05:00am - - - - - SW 13 15 7 8 - - -
19/04:30am - - - - - SW 11 13 6 7 - - -
19/04:00am - - - - - SW 13 15 7 8 - - -
19/03:30am - - - - - SW 13 15 7 8 - - -
19/03:00am - - - - - SW 13 13 7 7 - - -
19/02:30am - - - - - SW 13 15 7 8 - - -
19/02:00am - - - - - SW 15 17 8 9 - - -
19/01:30am - - - - - SW 13 15 7 8 - - -
19/01:00am - - - - - SW 13 17 7 9 - - -
19/12:30am - - - - - SW 15 17 8 9 - - -
19/12:00am - - - - - SW 17 17 9 9 - - -
 
Date/Time
EST
Temp
°C
App
Temp
°C
Dew
Point
Rel
Hum
%
Delta-T
°C
Wind Press
QNH
hPa
Press
MSL
hPa
Rain
since 9 am
mm
Dir
 
Spd
km/h
Gust
km/h
Spd
kts
Gust
kts
18/11:30pm - - - - - SW 15 17 8 9 - - -
18/11:00pm - - - - - SW 13 15 7 8 - - -
18/10:30pm - - - - - WSW 11 15 6 8 - - -
18/10:00pm - - - - - SSW 11 15 6 8 - - -
18/09:30pm - - - - - SE 15 19 8 10 - - -
18/09:00pm - - - - - ESE 17 20 9 11 - - -
18/08:30pm - - - - - ESE 17 20 9 11 - - -
18/08:00pm - - - - - SE 17 20 9 11 - - -
18/07:30pm - - - - - ESE 17 20 9 11 - - -
18/07:00pm - - - - - SE 17 22 9 12 - - -
18/06:30pm - - - - - ESE 20 26 11 14 - - -
18/06:00pm - - - - - ESE 26 30 14 16 - - -
18/05:30pm - - - - - E 28 32 15 17 - - -
18/05:00pm - - - - - E 28 33 15 18 - - -
18/04:30pm - - - - - E 32 35 17 19 - - -
18/04:00pm - - - - - E 35 39 19 21 - - -
18/03:30pm - - - - - ESE 37 43 20 23 - - -
18/03:00pm - - - - - ESE 35 41 19 22 - - -
18/02:30pm - - - - - ESE 37 44 20 24 - - -
18/02:00pm - - - - - ESE 37 43 20 23 - - -
18/01:58pm - - - - - ESE 39 43 21 23 - - -
18/01:30pm - - - - - SE 30 41 16 22 - - -
18/01:00pm - - - - - SE 30 37 16 20 - - -
18/12:30pm - - - - - SSE 28 33 15 18 - - -
18/12:00pm - - - - - SSE 37 44 20 24 - - -
18/11:30am - - - - - SSE 39 48 21 26 - - -
18/11:00am - - - - - SSE 28 39 15 21 - - -
18/10:30am - - - - - SSE 28 35 15 19 - - -
18/10:00am - - - - - S 24 33 13 18 - - -
18/09:30am - - - - - S 20 28 11 15 - - -
18/09:00am - - - - - S 17 22 9 12 - - -
18/08:30am - - - - - S 15 20 8 11 - - -
18/08:00am - - - - - S 15 17 8 9 - - -
18/07:30am - - - - - SW 13 15 7 8 - - -
18/07:00am - - - - - WSW 9 17 5 9 - - -
18/06:30am - - - - - NW 11 13 6 7 - - -
18/06:00am - - - - - WSW 7 9 4 5 - - -
18/05:30am - - - - - NW 11 15 6 8 - - -
18/05:00am - - - - - WNW 11 15 6 8 - - -
18/04:30am - - - - - NW 9 11 5 6 - - -
18/04:00am - - - - - WNW 11 17 6 9 - - -
18/03:30am - - - - - NW 13 15 7 8 - - -
18/03:00am - - - - - NW 15 17 8 9 - - -
18/02:30am - - - - - WNW 13 19 7 10 - - -
18/02:00am - - - - - WNW 13 15 7 8 - - -
18/01:30am - - - - - NW 11 15 6 8 - - -
18/01:00am - - - - - NNW 13 17 7 9 - - -
18/12:30am - - - - - NW 11 15 6 8 - - -
18/12:00am - - - - - NNW 13 17 7 9 - - -
 
Date/Time
EST
Temp
°C
App
Temp
°C
Dew
Point
Rel
Hum
%
Delta-T
°C
Wind Press
QNH
hPa
Press
MSL
hPa
Rain
since 9 am
mm
Dir
 
Spd
km/h
Gust
km/h
Spd
kts
Gust
kts
17/11:30pm - - - - - WNW 11 17 6 9 - - -
17/11:00pm - - - - - NW 15 17 8 9 - - -
17/10:30pm - - - - - NW 11 13 6 7 - - -
17/10:00pm - - - - - NW 13 13 7 7 - - -
17/09:30pm - - - - - NNW 19 24 10 13 - - -
17/09:00pm - - - - - N 17 20 9 11 - - -
17/08:30pm - - - - - NNW 17 19 9 10 - - -
17/08:00pm - - - - - N 19 24 10 13 - - -
17/07:30pm - - - - - N 20 26 11 14 - - -
17/07:00pm - - - - - N 20 24 11 13 - - -
17/06:30pm - - - - - N 17 22 9 12 - - -
17/06:00pm - - - - - N 19 24 10 13 - - -
17/05:30pm - - - - - N 28 35 15 19 - - -
17/05:00pm - - - - - NNE 32 37 17 20 - - -
17/04:30pm - - - - - NNE 33 39 18 21 - - -
17/04:00pm - - - - - NNE 30 37 16 20 - - -
17/03:30pm - - - - - NNE 33 37 18 20 - - -
17/03:00pm - - - - - NNE 32 37 17 20 - - -
17/02:30pm - - - - - NNE 30 33 16 18 - - -
17/02:00pm - - - - - NNE 28 32 15 17 - - -
17/01:30pm - - - - - NNE 26 28 14 15 - - -
17/01:00pm - - - - - NE 22 26 12 14 - - -
17/12:30pm - - - - - NE 19 20 10 11 - - -
17/12:00pm - - - - - NNE 26 28 14 15 - - -
17/11:30am - - - - - N 20 26 11 14 - - -
17/11:00am - - - - - N 20 22 11 12 - - -
17/10:30am - - - - - N 19 22 10 12 - - -
17/10:00am - - - - - WNW 13 19 7 10 - - -
17/09:30am - - - - - NW 19 24 10 13 - - -
17/09:00am - - - - - W 15 20 8 11 - - -
17/08:30am - - - - - NW 17 26 9 14 - - -
17/08:00am - - - - - NW 17 20 9 11 - - -
17/07:30am - - - - - NW 13 19 7 10 - - -
17/07:00am - - - - - WNW 13 19 7 10 - - -
17/06:30am - - - - - WNW 13 19 7 10 - - -
17/06:00am - - - - - WNW 13 17 7 9 - - -
17/05:30am - - - - - W 13 19 7 10 - - -
17/05:00am - - - - - WNW 13 19 7 10 - - -
17/04:30am - - - - - WNW 13 17 7 9 - - -
17/04:00am - - - - - WNW 15 19 8 10 - - -
17/03:30am - - - - - WNW 11 15 6 8 - - -
17/03:00am - - - - - W 13 15 7 8 - - -
17/02:30am - - - - - WNW 15 17 8 9 - - -
17/02:00am - - - - - WNW 13 17 7 9 - - -
17/01:30am - - - - - NW 11 15 6 8 - - -
17/01:00am - - - - - WNW 11 13 6 7 - - -
17/12:30am - - - - - WNW 11 13 6 7 - - -
17/12:00am - - - - - WNW 11 13 6 7 - - -
 
Date/Time
EST
Temp
°C
App
Temp
°C
Dew
Point
Rel
Hum
%
Delta-T
°C
Wind Press
QNH
hPa
Press
MSL
hPa
Rain
since 9 am
mm
Dir
 
Spd
km/h
Gust
km/h
Spd
kts
Gust
kts
16/11:30pm - - - - - W 9 11 5 6 - - -
16/11:00pm - - - - - W 9 9 5 5 - - -
16/10:30pm - - - - - W 9 11 5 6 - - -
16/10:00pm - - - - - W 11 13 6 7 - - -
16/09:30pm - - - - - N 15 17 8 9 - - -
16/09:00pm - - - - - N 17 19 9 10 - - -
16/08:30pm - - - - - N 17 19 9 10 - - -
16/08:00pm - - - - - N 15 19 8 10 - - -
16/07:30pm - - - - - NNE 15 19 8 10 - - -
16/07:00pm - - - - - NNE 15 19 8 10 - - -
16/06:30pm - - - - - NNE 15 17 8 9 - - -
16/06:00pm - - - - - NNE 17 20 9 11 - - -
16/05:30pm - - - - - NE 17 20 9 11 - - -
16/05:00pm - - - - - NE 15 19 8 10 - - -
16/04:30pm - - - - - NE 15 19 8 10 - - -
16/04:00pm - - - - - NE 15 19 8 10 - - -

Other Formats:

Comma delimited format used in spreadsheet applications
http://www.bom.gov.au/fwo/IDQ60801/IDQ60801.99367.axf

JavaScript Object Notation format (JSON) in row-major order
http://www.bom.gov.au/fwo/IDQ60801/IDQ60801.99367.json